KECP

Northwest Florida Beaches International Airport

Panama City, Florida, USA
KECP 201738Z 2018/2118 06007KT P6SM FEW250 FM210600 05006KT P6SM SCT040 FM211500 07012KT P6SM OVC025
Issued Valid From Valid To
Apr-20 @ 17:38 UTC
(54 minutes ago)
Apr-20 @ 18:00 UTC
(32 minutes ago)
Apr-21 @ 18:00 UTC
(in 23 hours)
Apr-20 @ 18:00 to Apr-21 @ 06:00
KECP 201738Z 2018/2118 06007KT P6SM FEW250
Wind Visibility Clouds
60° at 7 knots Greater than 6 miles
  • Few at 25,000' AGL
From Apr-21 @ 06:00 to Apr-21 @ 15:00
FM210600 05006KT P6SM SCT040
Wind Visibility Clouds
50° at 6 knots Greater than 6 miles
  • Scattered at 4,000' AGL
From Apr-21 @ 15:00 to Apr-21 @ 18:00
FM211500 07012KT P6SM OVC025
Wind Visibility Clouds
70° at 12 knots Greater than 6 miles
  • Overcast at 2,500' AGL
KECP 201738Z 2018/2118 06007KT P6SM FEW250 FM210600 05006KT P6SM SCT040 FM211500 07012KT P6SM OVC025
Issued Apr-20 @ 17:38 UTC
(54 minutes ago)
Valid From Apr-20 @ 18:00 UTC
(32 minutes ago)
Valid To Apr-21 @ 18:00 UTC
(in 23 hours)
Apr-20 @ 18:00 - Apr-21 @ 06:00
Wind Visibility
60° at 7 knots Greater than 6 miles
Clouds
  • Few at 25,000' AGL
From Apr-21 @ 06:00 - Apr-21 @ 15:00
Wind Visibility
50° at 6 knots Greater than 6 miles
Clouds
  • Scattered at 4,000' AGL
From Apr-21 @ 15:00 - Apr-21 @ 18:00
Wind Visibility
70° at 12 knots Greater than 6 miles
Clouds
  • Overcast at 2,500' AGL